Saturday, November 18, 2017, 12:06 PM GMT
Back to Local

CWEF, Saint Paul Island Meteorological Aeronautical Presentation System

Location: , , Canada Lat: 47.233
Local Time: 12:06 PM GMT (12:06 GMT) Lon: -60.133
Time Zone: GMT Elev: 85 ft

Show me the last for .
Show Coded

Time T Td Feel RH Dir Speed Gust Alt SLP Vis Weather Sky Remarks
2017-11-18 11:00 42 39 33 88 280° 23 - - 29.29 0 Peak wind: 27 mph (24 kts) from 280° at 43 min
2017-11-18 10:00 42 40 33 93 270° 22 - - 29.28 0 Peak wind: 28 mph (25 kts) from 270° at 28 min
2017-11-18 09:00 42 40 34 89 250° 18 - - 29.26 0 Peak wind: 34 mph (30 kts) from 250° at 00 min
2017-11-18 08:00 42 38 31 86 260° 29 - - 29.23 0 Peak wind: 33 mph (29 kts) from 250° at 00 min
2017-11-18 07:00 40 40 30 97 240° 23 - - 29.23 0 Peak wind: 35 mph (31 kts) from 240° at 02 min
2017-11-18 06:00 42 39 31 89 240° 29 - - 29.22 0 Peak wind: 34 mph (30 kts) from 250° at 50 min
2017-11-18 05:00 42 39 33 88 240° 25 - - 29.21 0 Peak wind: 31 mph (27 kts) from 220° at 45 min
2017-11-18 04:00 41 36 32 80 190° 13 18 - 29.22 0 Peak wind: 23 mph (20 kts) from 200° at 20 min
2017-11-18 03:00 41 34 31 76 190° 13 22 - 29.23 0 Peak wind: 25 mph (22 kts) from 200° at 37 min
2017-11-18 02:00 41 34 32 76 200° 14 20 - 29.24 0 Peak wind: 31 mph (27 kts) from 210° at 23 min
2017-11-18 01:00 43 36 33 76 200° 20 26 - 29.23 0 Peak wind: 26 mph (23 kts) from 210° at 57 min
2017-11-18 00:00 45 38 35 76 200° 20 31 - 29.23 0 Peak wind: 31 mph (27 kts) from 210° at 53 min
2017-11-17 23:00 45 38 35 75 200° 18 29 - 29.22 0 Peak wind: 28 mph (25 kts) from 200° at 56 min
2017-11-17 22:00 46 41 38 81 180° 14 23 - 29.22 0 Peak wind: 26 mph (23 kts) from 180° at 44 min
2017-11-17 21:00 47 41 40 80 180° 12 17 - 29.23 0 Peak wind: 25 mph (22 kts) from 150° at 27 min
2017-11-17 20:00 47 43 40 85 170° 20 - - 29.23 0 Peak wind: 27 mph (24 kts) from 150° at 03 min
2017-11-17 19:00 47 45 38 90 150° 24 31 - 29.23 0 Peak wind: 31 mph (27 kts) from 170° at 41 min
2017-11-17 18:00 47 45 37 92 150° 29 37 - 29.23 0 Peak wind: 54 mph (47 kts) from 130° at 28 min
2017-11-17 17:00 45 44 33 94 130° 44 51 - 29.24 0 Peak wind: 63 mph (55 kts) from 120° at 06 min
2017-11-17 16:00 45 42 31 92 120° 49 59 - 29.25 0 Peak wind: 67 mph (59 kts) from 110° at 19 min
2017-11-17 15:00 44 42 31 90 110° 48 60 - 29.30 0 Peak wind: 59 mph (52 kts) from 110° at 56 min
Pressure falling rapidly
2017-11-17 14:00 44 41 31 90 120° 49 60 - 29.41 0 Peak wind: 59 mph (52 kts) from 110° at 50 min
Pressure falling rapidly
2017-11-17 13:00 44 40 31 82 120° 44 56 - 29.48 0 Peak wind: 56 mph (49 kts) from 110° at 44 min

Support USWX by starting your Amazon purchase here.